CST,Max TemperatureF,Mean TemperatureF,Min TemperatureF,Max Dew PointF,MeanDew PointF,Min DewpointF,Max Humidity, Mean Humidity, Min Humidity, Max Sea Level PressureIn, Mean Sea Level PressureIn, Min Sea Level PressureIn, Max VisibilityMiles, Mean VisibilityMiles, Min VisibilityMiles, Max Wind SpeedMPH, Mean Wind SpeedMPH, Max Gust SpeedMPH,PrecipitationIn, CloudCover, Events, WindDirDegrees
2014-2-1,5,-2,-9,0,-7,-15,92,78,61,30.04,29.97,29.77,10,10,4,20,12,22,0.15,7,Rain-Snow,297
2014-2-2,14,2,-11,5,-1,-17,92,79,67,30.02,29.95,29.88,10,10,2,17,10,,0.01,5,Rain-Snow,248
2014-2-3,8,0,-7,1,-5,-13,85,71,60,30.34,30.15,30.01,10,9,0,33,13,39,0.02,4,Rain-Snow,299
2014-2-4,1,-5,-11,-8,-12,-18,78,71,60,30.53,30.45,30.35,10,10,10,21,11,24,0.00,3,Snow,312
2014-2-5,0,-4,-7,-9,-11,-15,78,73,65,30.56,30.49,30.32,10,10,10,22,14,21,0.00,4,Snow,315
2014-2-6,5,-1,-7,-4,-7,-15,85,71,61,30.32,30.08,29.85,10,10,5,29,17,40,0.00,3,Snow,279
2014-2-7,6,-2,-9,0,-9,-17,85,70,52,29.95,29.87,29.80,10,10,10,20,11,21,0.00,0,,273
2014-2-8,1,-5,-11,-4,-10,-17,85,78,65,30.23,30.09,29.95,10,10,5,16,7,16,0.04,4,Snow,349
2014-2-9,-2,-8,-13,-9,-15,-18,77,72,65,30.32,30.26,30.21,10,10,10,22,14,22,0.00,0,,320
2014-2-10,3,-8,-18,-6,-14,-22,84,75,60,30.34,30.28,30.08,10,10,10,22,8,,0.00,0,,229
2014-2-11,26,8,-9,18,-1,-13,93,82,69,30.07,29.81,29.59,10,8,0,28,17,37,0.02,3,Rain-Snow,255
2014-2-12,5,2,-2,1,-5,-9,92,78,66,30.05,29.79,29.32,10,8,0,26,14,32,0.71,5,Snow,150
2014-2-13,3,-3,-9,0,-10,-15,92,77,65,29.85,29.69,29.34,10,7,1,29,19,34,0.19,6,Rain-Snow,349
2014-2-14,6,-2,-11,3,-7,-18,85,73,60,29.98,29.85,29.63,10,10,10,22,10,22,0.00,3,,239
2014-2-15,8,0,-9,9,-2,-13,100,85,71,30.14,29.86,29.59,10,7,0,25,13,29,0.24,4,Rain-Snow,359
2014-2-16,14,0,-13,12,-1,-18,100,87,77,30.08,29.82,29.57,10,5,0,23,11,32,0.18,6,Fog-Snow,175
2014-2-17,32,23,14,25,20,14,100,85,69,29.58,29.50,29.37,10,10,8,23,14,29,0.00,2,,231
2014-2-18,37,26,14,25,19,14,100,74,48,29.65,29.53,29.38,10,10,10,28,13,39,0.00,0,,280
2014-2-19,24,16,8,23,16,7,100,91,68,29.63,29.53,29.44,10,9,1,18,12,23,0.87,3,Rain-Snow,70
2014-2-20,8,3,-2,7,2,-8,92,84,72,29.72,29.63,29.50,10,7,1,30,18,36,0.16,4,Rain-Snow,335
2014-2-21,8,2,-4,1,-4,-9,92,81,72,29.77,29.68,29.64,10,6,1,26,19,33,0.00,3,Snow,325
2014-2-22,8,3,-2,0,-5,-9,85,74,62,30.06,29.93,29.77,10,9,4,30,21,34,0.00,2,Snow,316
2014-2-23,5,0,-4,0,-6,-13,85,73,61,30.26,30.19,30.07,10,9,1,29,22,34,0.00,2,Snow,318
2014-2-24,0,-6,-11,-9,-15,-18,77,67,60,30.28,30.26,30.20,10,10,10,23,17,28,0.00,1,,309
2014-2-25,-2,-8,-13,-13,-16,-18,77,65,46,30.37,30.26,30.08,10,10,4,25,17,31,0.00,2,Rain-Snow,307
2014-2-26,6,-4,-14,0,-8,-22,85,70,60,30.05,29.84,29.63,10,7,0,33,21,43,0.04,4,Rain-Snow,312
2014-2-27,1,-10,-22,-6,-16,-29,78,71,59,30.04,29.89,29.64,10,10,10,17,9,22,0.00,1,,209
2014-2-28,1,-8,-16,-2,-11,-26,92,75,60,30.27,29.90,29.56,10,7,0,29,17,36,0.15,4,Rain-Snow,319